createdAt,value
2019-01-08T00:00:03.695Z,4.18
2019-01-08T00:01:03.243Z,4.18
2019-01-08T00:02:02.547Z,4.25
2019-01-08T00:03:02.840Z,4.18
2019-01-08T00:04:03.172Z,4.18
2019-01-08T00:05:02.521Z,4.18
2019-01-08T00:06:02.845Z,4.18
2019-01-08T00:07:03.170Z,4.25
2019-01-08T00:08:02.433Z,4.25
2019-01-08T00:09:02.736Z,4.25
2019-01-08T00:10:03.183Z,4.25
2019-01-08T00:11:02.447Z,4.25
2019-01-08T00:12:02.765Z,4.25
2019-01-08T00:13:03.082Z,4.25
2019-01-08T00:14:02.373Z,4.18
2019-01-08T00:15:03.628Z,4.25
2019-01-08T00:16:02.925Z,4.18
2019-01-08T00:17:03.255Z,4.25
2019-01-08T00:18:02.525Z,4.18
2019-01-08T00:19:02.841Z,4.18
2019-01-08T00:20:03.221Z,4.25
2019-01-08T00:21:03.501Z,4.25
2019-01-08T00:22:02.779Z,4.25
2019-01-08T00:23:03.101Z,4.25
2019-01-08T00:24:02.366Z,4.25
2019-01-08T00:25:02.690Z,4.25
2019-01-08T00:26:04.029Z,4.31
2019-01-08T00:27:02.391Z,4.25
2019-01-08T00:28:02.700Z,4.25
2019-01-08T00:29:03.001Z,4.25
2019-01-08T00:30:02.294Z,4.25
2019-01-08T00:31:02.687Z,4.25
2019-01-08T00:32:02.992Z,4.25
2019-01-08T00:33:02.280Z,4.25
2019-01-08T00:34:02.609Z,4.25
2019-01-08T00:35:02.920Z,4.31
2019-01-08T00:36:03.275Z,4.31
2019-01-08T00:37:02.607Z,4.31
2019-01-08T00:38:03.796Z,4.31
2019-01-08T00:39:03.081Z,4.31
2019-01-08T00:40:02.365Z,4.31
2019-01-08T00:41:02.743Z,4.31
2019-01-08T00:42:03.064Z,4.31
2019-01-08T00:43:02.381Z,4.31
2019-01-08T00:44:02.701Z,4.31
2019-01-08T00:45:03.012Z,4.25
2019-01-08T00:46:02.284Z,4.31
2019-01-08T00:47:02.629Z,4.25
2019-01-08T00:48:02.922Z,4.31
2019-01-08T00:49:03.239Z,4.31
2019-01-08T00:50:02.540Z,4.31
2019-01-08T00:51:02.857Z,4.31
2019-01-08T00:52:03.263Z,4.31
2019-01-08T00:53:02.524Z,4.31
2019-01-08T00:54:02.846Z,4.31
2019-01-08T00:55:03.174Z,4.31
2019-01-08T00:56:02.435Z,4.31
2019-01-08T00:57:02.817Z,4.31
2019-01-08T00:58:03.168Z,4.31
2019-01-08T00:59:02.445Z,4.31
2019-01-08T01:00:02.769Z,4.31
2019-01-08T01:01:03.088Z,4.31
2019-01-08T01:02:02.418Z,4.31
2019-01-08T01:03:02.692Z,4.31
2019-01-08T01:04:03.011Z,4.31
2019-01-08T01:05:02.289Z,4.31
2019-01-08T01:06:02.610Z,4.31
2019-01-08T01:07:02.980Z,4.31
2019-01-08T01:08:02.305Z,4.37
2019-01-08T01:09:02.622Z,4.31
2019-01-08T01:10:02.940Z,4.37
2019-01-08T01:11:03.353Z,4.37
2019-01-08T01:12:02.663Z,4.37
2019-01-08T01:13:02.938Z,4.37
2019-01-08T01:14:03.294Z,4.37
2019-01-08T01:15:02.602Z,4.37
2019-01-08T01:16:02.922Z,4.37
2019-01-08T01:17:03.298Z,4.31
2019-01-08T01:18:02.655Z,4.37
2019-01-08T01:19:02.951Z,4.31
2019-01-08T01:20:03.263Z,4.31
2019-01-08T01:21:02.550Z,4.31
2019-01-08T01:22:02.859Z,4.31
2019-01-08T01:23:03.194Z,4.37
2019-01-08T01:24:03.395Z,4.37
2019-01-08T01:25:02.689Z,4.37
2019-01-08T01:26:03.000Z,4.37
2019-01-08T01:27:02.289Z,4.43
2019-01-08T01:28:02.638Z,4.43
2019-01-08T01:29:02.946Z,4.37
2019-01-08T01:30:03.299Z,4.37
2019-01-08T01:31:02.650Z,4.43
2019-01-08T01:32:02.940Z,4.43
2019-01-08T01:33:03.268Z,4.43
2019-01-08T01:34:02.538Z,4.43
2019-01-08T01:35:02.832Z,4.43
2019-01-08T01:36:03.097Z,4.43
2019-01-08T01:37:02.363Z,4.37
2019-01-08T01:38:02.714Z,4.31
2019-01-08T01:39:03.027Z,4.37
2019-01-08T01:40:02.368Z,4.37
2019-01-08T01:41:02.689Z,4.37
2019-01-08T01:42:03.026Z,4.37
2019-01-08T01:43:02.376Z,4.43
2019-01-08T01:44:02.679Z,4.37
2019-01-08T01:45:03.029Z,4.37
2019-01-08T01:46:02.331Z,4.37
2019-01-08T01:47:02.611Z,4.37
2019-01-08T01:48:02.973Z,4.37
2019-01-08T01:49:02.294Z,4.31
2019-01-08T01:50:03.498Z,4.43
2019-01-08T01:51:02.778Z,4.37
2019-01-08T01:52:03.078Z,4.43
2019-01-08T01:53:02.415Z,4.37
2019-01-08T01:54:02.750Z,4.37
2019-01-08T01:55:03.016Z,4.37
2019-01-08T01:56:03.237Z,4.37
2019-01-08T01:57:02.522Z,4.37
2019-01-08T01:58:04.611Z,4.43
2019-01-08T01:59:08.245Z,4.37
2019-01-08T02:00:02.853Z,4.43
2019-01-08T02:01:03.219Z,4.43
2019-01-08T02:02:02.533Z,4.43
2019-01-08T02:03:02.848Z,4.37
2019-01-08T02:04:03.177Z,4.37
2019-01-08T02:05:02.515Z,4.37
2019-01-08T02:06:02.766Z,4.37
2019-01-08T02:07:03.083Z,4.43
2019-01-08T02:08:02.631Z,4.43
2019-01-08T02:09:03.108Z,4.43
2019-01-08T02:10:02.712Z,4.43
2019-01-08T02:11:03.065Z,4.43
2019-01-08T02:12:02.576Z,4.43
2019-01-08T02:13:03.016Z,4.5
2019-01-08T02:14:02.321Z,4.43
2019-01-08T02:15:02.632Z,4.43
2019-01-08T02:16:02.978Z,4.37
2019-01-08T02:17:02.287Z,4.43
2019-01-08T02:18:02.619Z,4.43
2019-01-08T02:19:02.939Z,4.37
2019-01-08T02:20:03.364Z,4.37
2019-01-08T02:21:02.698Z,4.43
2019-01-08T02:22:03.003Z,4.37
2019-01-08T02:23:02.291Z,4.43
2019-01-08T02:24:02.620Z,4.5
2019-01-08T02:25:02.988Z,4.5
2019-01-08T02:26:02.308Z,4.5
2019-01-08T02:27:02.601Z,4.5
2019-01-08T02:28:02.924Z,4.5
2019-01-08T02:29:03.240Z,4.5
2019-01-08T02:30:02.527Z,4.5
2019-01-08T02:31:03.815Z,4.5
2019-01-08T02:32:03.093Z,4.5
2019-01-08T02:33:02.363Z,4.5
2019-01-08T02:34:03.575Z,4.43
2019-01-08T02:35:02.871Z,4.43
2019-01-08T02:36:03.184Z,4.43
2019-01-08T02:37:02.526Z,4.43
2019-01-08T02:38:02.842Z,4.43
2019-01-08T02:39:03.088Z,4.5
2019-01-08T02:40:02.362Z,4.56
2019-01-08T02:41:02.708Z,4.56
2019-01-08T02:42:03.135Z,4.5
2019-01-08T02:43:02.450Z,4.56
2019-01-08T02:44:02.801Z,4.56
2019-01-08T02:45:03.166Z,4.5
2019-01-08T02:46:02.638Z,4.56
2019-01-08T02:47:03.065Z,4.5
2019-01-08T02:48:02.375Z,4.5
2019-01-08T02:49:02.695Z,4.5
2019-01-08T02:50:03.009Z,4.5
2019-01-08T02:51:02.355Z,4.43
2019-01-08T02:52:02.707Z,4.5
2019-01-08T02:53:03.004Z,4.5
2019-01-08T02:54:02.303Z,4.43
2019-01-08T02:55:02.655Z,4.5
2019-01-08T02:56:02.947Z,4.5
2019-01-08T02:57:03.275Z,4.5
2019-01-08T02:58:02.620Z,4.5
2019-01-08T02:59:02.945Z,4.43
2019-01-08T03:00:03.241Z,4.5
2019-01-08T03:01:02.619Z,4.43
2019-01-08T03:02:03.046Z,4.43
2019-01-08T03:03:02.379Z,4.5
2019-01-08T03:04:02.702Z,4.5
2019-01-08T03:05:03.000Z,4.5
2019-01-08T03:06:02.290Z,4.5
2019-01-08T03:07:02.614Z,4.5
2019-01-08T03:08:02.943Z,4.5
2019-01-08T03:09:03.239Z,4.5
2019-01-08T03:10:02.538Z,4.5
2019-01-08T03:11:02.840Z,4.43
2019-01-08T03:12:03.166Z,4.5
2019-01-08T03:13:02.510Z,4.5
2019-01-08T03:14:02.772Z,4.56
2019-01-08T03:15:03.096Z,4.56
2019-01-08T03:16:02.369Z,4.56
2019-01-08T03:17:02.686Z,4.56
2019-01-08T03:18:03.102Z,4.56
2019-01-08T03:19:02.385Z,4.56
2019-01-08T03:20:02.646Z,4.56
2019-01-08T03:21:02.961Z,4.56
2019-01-08T03:22:02.278Z,4.56
2019-01-08T03:23:02.654Z,4.56
2019-01-08T03:24:02.922Z,4.56
2019-01-08T03:25:04.117Z,4.56
2019-01-08T03:26:02.442Z,4.56
2019-01-08T03:27:02.771Z,4.56
2019-01-08T03:28:03.132Z,4.56
2019-01-08T03:29:02.478Z,4.56
2019-01-08T03:30:02.820Z,4.56
2019-01-08T03:31:03.160Z,4.56
2019-01-08T03:32:02.448Z,4.56
2019-01-08T03:33:02.777Z,4.62
2019-01-08T03:34:03.144Z,4.56
2019-01-08T03:35:02.457Z,4.62
2019-01-08T03:36:02.815Z,4.62
2019-01-08T03:37:03.105Z,4.62
2019-01-08T03:38:02.364Z,4.56
2019-01-08T03:39:02.753Z,4.56
2019-01-08T03:40:03.090Z,4.62
2019-01-08T03:41:02.358Z,4.56
2019-01-08T03:42:02.688Z,4.68
2019-01-08T03:43:03.019Z,4.68
2019-01-08T03:44:02.354Z,4.68
2019-01-08T03:45:02.703Z,4.68
2019-01-08T03:46:03.010Z,4.68
2019-01-08T03:47:02.331Z,4.62
2019-01-08T03:48:02.608Z,4.56
2019-01-08T03:49:02.946Z,4.62
2019-01-08T03:50:03.301Z,4.62
2019-01-08T03:51:02.606Z,4.56
2019-01-08T03:52:02.926Z,4.5
2019-01-08T03:53:04.132Z,4.5
2019-01-08T03:54:02.450Z,4.43
2019-01-08T03:55:02.826Z,4.43
2019-01-08T03:56:03.081Z,4.43
2019-01-08T03:57:02.383Z,4.37
2019-01-08T03:58:02.698Z,4.43
2019-01-08T03:59:03.000Z,4.43
2019-01-08T04:00:02.343Z,4.31
2019-01-08T04:01:02.611Z,4.25
2019-01-08T04:02:02.924Z,4.25
2019-01-08T04:03:03.261Z,4.25
2019-01-08T04:04:02.536Z,4.25
2019-01-08T04:05:02.900Z,4.25
2019-01-08T04:06:03.282Z,4.18
2019-01-08T04:07:02.606Z,4.18
2019-01-08T04:08:02.921Z,4.18
2019-01-08T04:09:03.245Z,4.18
2019-01-08T04:10:02.534Z,4.18
2019-01-08T04:11:02.908Z,4.18
2019-01-08T04:12:03.181Z,4.12
2019-01-08T04:13:02.483Z,4.12
2019-01-08T04:14:02.769Z,4.12
2019-01-08T04:15:03.078Z,4.12
2019-01-08T04:16:02.446Z,4.12
2019-01-08T04:17:02.768Z,4.06
2019-01-08T04:18:03.082Z,4.12
2019-01-08T04:19:02.377Z,4.12
2019-01-08T04:20:02.688Z,4.18
2019-01-08T04:21:03.054Z,4.18
2019-01-08T04:22:02.464Z,4.06
2019-01-08T04:23:02.765Z,4.12
2019-01-08T04:24:03.099Z,4.12
2019-01-08T04:25:02.367Z,4.06
2019-01-08T04:26:02.699Z,4.06
2019-01-08T04:27:03.025Z,4.06
2019-01-08T04:28:02.288Z,4.12
2019-01-08T04:29:02.614Z,4.12
2019-01-08T04:30:02.921Z,4.06
2019-01-08T04:31:03.243Z,4.06
2019-01-08T04:32:02.557Z,4.12
2019-01-08T04:33:02.847Z,4.12
2019-01-08T04:34:03.177Z,4.25
2019-01-08T04:35:02.453Z,4.25
2019-01-08T04:36:02.812Z,4.25
2019-01-08T04:37:03.175Z,4.25
2019-01-08T04:38:02.446Z,4.31
2019-01-08T04:39:02.736Z,4.31
2019-01-08T04:40:03.003Z,4.31
2019-01-08T04:41:02.279Z,4.31
2019-01-08T04:42:02.665Z,4.31
2019-01-08T04:43:02.923Z,4.37
2019-01-08T04:44:03.256Z,4.31
2019-01-08T04:45:02.526Z,4.31
2019-01-08T04:46:02.852Z,4.25
2019-01-08T04:47:03.227Z,4.25
2019-01-08T04:48:02.542Z,4.18
2019-01-08T04:49:02.847Z,4.12
2019-01-08T04:50:03.166Z,4.18
2019-01-08T04:51:02.456Z,4.06
2019-01-08T04:52:02.760Z,4.12
2019-01-08T04:53:03.179Z,4.06
2019-01-08T04:54:02.446Z,4.12
2019-01-08T04:55:02.765Z,4.06
2019-01-08T04:56:03.092Z,4.12
2019-01-08T04:57:02.372Z,4.12
2019-01-08T04:58:02.735Z,4.12
2019-01-08T04:59:03.006Z,4.18
2019-01-08T05:00:02.280Z,4.18
2019-01-08T05:01:02.604Z,4.18
2019-01-08T05:02:02.922Z,4.18
2019-01-08T05:03:03.306Z,4.25
2019-01-08T05:04:02.602Z,4.18
2019-01-08T05:05:02.931Z,4.12
2019-01-08T05:06:03.244Z,4.06
2019-01-08T05:07:02.537Z,4.06
2019-01-08T05:08:02.849Z,4
2019-01-08T05:09:03.191Z,4.06
2019-01-08T05:10:02.526Z,4.06
2019-01-08T05:11:02.863Z,4.06
2019-01-08T05:12:03.163Z,4
2019-01-08T05:13:02.455Z,4
2019-01-08T05:14:02.794Z,3.93
2019-01-08T05:15:03.092Z,3.93
2019-01-08T05:16:02.370Z,4
2019-01-08T05:17:02.684Z,4
2019-01-08T05:18:03.006Z,4.06
2019-01-08T05:19:02.376Z,4.06
2019-01-08T05:20:02.689Z,4.12
2019-01-08T05:21:03.006Z,4.06
2019-01-08T05:22:02.304Z,4.06
2019-01-08T05:23:02.603Z,4.12
2019-01-08T05:24:02.985Z,4.18
2019-01-08T05:25:02.312Z,4.18
2019-01-08T05:26:02.844Z,4.12
2019-01-08T05:27:03.172Z,4.12
2019-01-08T05:28:02.448Z,4.12
2019-01-08T05:29:02.769Z,4.12
2019-01-08T05:30:07.678Z,4.12
2019-01-08T05:31:02.360Z,4.12
2019-01-08T05:32:02.680Z,4.12
2019-01-08T05:33:02.989Z,4.12
2019-01-08T05:34:02.287Z,4.06
2019-01-08T05:35:02.630Z,4.06
2019-01-08T05:36:02.926Z,4
2019-01-08T05:37:03.245Z,4
2019-01-08T05:38:02.541Z,4
2019-01-08T05:39:02.932Z,3.93
2019-01-08T05:40:03.302Z,3.93
2019-01-08T05:41:02.604Z,3.87
2019-01-08T05:42:02.917Z,3.87
2019-01-08T05:43:03.265Z,3.93
2019-01-08T05:44:02.529Z,3.93
2019-01-08T05:45:02.930Z,3.93
2019-01-08T05:46:03.302Z,4
2019-01-08T05:47:02.626Z,4.06
2019-01-08T05:48:03.807Z,4.06
2019-01-08T05:49:03.081Z,4.06
2019-01-08T05:50:02.362Z,4.12
2019-01-08T05:51:02.754Z,4.12
2019-01-08T05:52:03.094Z,4.12
2019-01-08T05:53:02.378Z,4.12
2019-01-08T05:54:02.681Z,4.06
2019-01-08T05:55:03.011Z,4.06
2019-01-08T05:56:02.347Z,4
2019-01-08T05:57:02.612Z,4
2019-01-08T05:58:02.947Z,3.93
2019-01-08T05:59:03.262Z,3.93
2019-01-08T06:00:02.605Z,3.93
2019-01-08T06:01:02.583Z,4
2019-01-08T06:02:02.859Z,3.93
2019-01-08T06:03:04.043Z,3.93
2019-01-08T06:04:02.362Z,3.87
2019-01-08T06:05:02.683Z,3.87
2019-01-08T06:06:03.073Z,3.93
2019-01-08T06:07:02.400Z,3.93
2019-01-08T06:08:02.702Z,3.93
2019-01-08T06:09:03.011Z,4
2019-01-08T06:10:02.290Z,4.06
2019-01-08T06:11:02.702Z,4.06
2019-01-08T06:12:03.119Z,4.12
2019-01-08T06:13:02.439Z,4.18
2019-01-08T06:14:02.761Z,4.18
2019-01-08T06:15:03.081Z,4.18
2019-01-08T06:16:02.375Z,4.25
2019-01-08T06:17:02.750Z,4.25
2019-01-08T06:18:03.096Z,4.25
2019-01-08T06:19:02.382Z,4.25
2019-01-08T06:20:02.697Z,4.18
2019-01-08T06:21:03.006Z,4.25
2019-01-08T06:22:02.288Z,4.25
2019-01-08T06:23:02.805Z,4.31
2019-01-08T06:24:03.088Z,4.25
2019-01-08T06:25:02.391Z,4.31
2019-01-08T06:26:02.684Z,4.31
2019-01-08T06:27:03.063Z,4.25
2019-01-08T06:28:02.434Z,4.31
2019-01-08T06:29:02.763Z,4.37
2019-01-08T06:30:03.179Z,4.31
2019-01-08T06:31:02.452Z,4.31
2019-01-08T06:32:02.766Z,4.31
2019-01-08T06:33:03.115Z,4.31
2019-01-08T06:34:02.362Z,4.25
2019-01-08T06:35:02.690Z,4.31
2019-01-08T06:36:03.003Z,4.31
2019-01-08T06:37:02.296Z,4.25
2019-01-08T06:38:02.627Z,4.25
2019-01-08T06:39:02.922Z,4.25
2019-01-08T06:40:03.240Z,4.31
2019-01-08T06:41:02.531Z,4.31
2019-01-08T06:42:02.853Z,4.31
2019-01-08T06:43:03.264Z,4.31
2019-01-08T06:44:02.544Z,4.31
2019-01-08T06:45:02.855Z,4.31
2019-01-08T06:46:03.186Z,4.31
2019-01-08T06:47:02.441Z,4.25
2019-01-08T06:48:02.778Z,4.25
2019-01-08T06:49:04.043Z,4.25
2019-01-08T06:50:02.379Z,4.31
2019-01-08T06:51:02.698Z,4.25
2019-01-08T06:52:03.016Z,4.25
2019-01-08T06:53:02.296Z,4.31
2019-01-08T06:54:02.664Z,4.31
2019-01-08T06:55:02.984Z,4.31
2019-01-08T06:56:02.292Z,4.31
2019-01-08T06:57:02.603Z,4.31
2019-01-08T06:58:02.988Z,4.25
2019-01-08T06:59:03.218Z,4.31
2019-01-08T07:00:02.519Z,4.25
2019-01-08T07:01:03.646Z,4.31
2019-01-08T07:02:02.934Z,4.31
2019-01-08T07:03:04.120Z,4.31
2019-01-08T07:04:02.459Z,4.31
2019-01-08T07:05:02.786Z,4.31
2019-01-08T07:06:03.138Z,4.31
2019-01-08T07:07:02.458Z,4.31
2019-01-08T07:08:02.763Z,4.31
2019-01-08T07:09:03.083Z,4.31
2019-01-08T07:10:02.443Z,4.31
2019-01-08T07:11:02.755Z,4.25
2019-01-08T07:12:02.999Z,4.31
2019-01-08T07:13:02.291Z,4.25
2019-01-08T07:14:02.597Z,4.31
2019-01-08T07:15:03.853Z,4.31
2019-01-08T07:16:03.178Z,4.25
2019-01-08T07:17:02.472Z,4.25
2019-01-08T07:18:02.755Z,4.25
2019-01-08T07:19:03.082Z,4.25
2019-01-08T07:20:02.487Z,4.25
2019-01-08T07:21:02.829Z,4.25
2019-01-08T07:22:03.289Z,4.25
2019-01-08T07:23:02.608Z,4.25
2019-01-08T07:24:02.938Z,4.25
2019-01-08T07:25:03.300Z,4.25
2019-01-08T07:26:03.477Z,4.25
2019-01-08T07:27:02.760Z,4.25
2019-01-08T07:28:03.077Z,4.25
2019-01-08T07:29:02.360Z,4.25
2019-01-08T07:30:03.617Z,4.25
2019-01-08T07:31:03.821Z,4.25
2019-01-08T07:32:03.097Z,4.25
2019-01-08T07:33:02.361Z,4.25
2019-01-08T07:34:02.680Z,4.25
2019-01-08T07:35:03.008Z,4.25
2019-01-08T07:36:02.306Z,4.25
2019-01-08T07:37:02.615Z,4.25
2019-01-08T07:38:02.982Z,4.31
2019-01-08T07:39:02.280Z,4.25
2019-01-08T07:40:02.596Z,4.25
2019-01-08T07:41:02.980Z,4.25
2019-01-08T07:42:02.285Z,4.25
2019-01-08T07:43:02.605Z,4.31
2019-01-08T07:44:02.927Z,4.25
2019-01-08T07:45:03.250Z,4.31
2019-01-08T07:46:02.580Z,4.31
2019-01-08T07:47:03.002Z,4.31
2019-01-08T07:48:02.285Z,4.31
2019-01-08T07:49:02.616Z,4.31
2019-01-08T07:50:02.937Z,4.31
2019-01-08T07:51:03.249Z,4.31
2019-01-08T07:52:02.551Z,4.31
2019-01-08T07:53:02.901Z,4.31
2019-01-08T07:54:03.198Z,4.31
2019-01-08T07:55:02.538Z,4.31
2019-01-08T07:56:02.849Z,4.31
2019-01-08T07:57:03.181Z,4.37
2019-01-08T07:58:02.526Z,4.37
2019-01-08T07:59:02.840Z,4.37
2019-01-08T08:00:03.165Z,4.31
2019-01-08T08:01:02.478Z,4.31
2019-01-08T08:02:03.704Z,4.31
2019-01-08T08:03:02.994Z,4.31
2019-01-08T08:04:02.286Z,4.31
2019-01-08T08:05:03.498Z,4.31
2019-01-08T08:06:02.877Z,4.31
2019-01-08T08:07:03.179Z,4.31
2019-01-08T08:08:02.586Z,4.31
2019-01-08T08:09:03.430Z,4.31
2019-01-08T08:10:02.763Z,4.31
2019-01-08T08:11:03.084Z,4.31
2019-01-08T08:12:02.370Z,4.31
2019-01-08T08:13:02.756Z,4.31
2019-01-08T08:14:03.085Z,4.37
2019-01-08T08:15:02.370Z,4.37
2019-01-08T08:16:02.675Z,4.37
2019-01-08T08:17:03.007Z,4.37
2019-01-08T08:18:02.310Z,4.37
2019-01-08T08:19:02.601Z,4.37
2019-01-08T08:20:02.920Z,4.37
2019-01-08T08:21:03.243Z,4.37
2019-01-08T08:22:02.534Z,4.43
2019-01-08T08:23:03.009Z,4.43
2019-01-08T08:24:02.292Z,4.43
2019-01-08T08:25:02.663Z,4.43
2019-01-08T08:26:02.922Z,4.37
2019-01-08T08:27:03.264Z,4.43
2019-01-08T08:28:02.583Z,4.43
2019-01-08T08:29:02.984Z,4.43
2019-01-08T08:30:02.302Z,4.5
2019-01-08T08:31:02.613Z,4.5
2019-01-08T08:32:02.926Z,4.5
2019-01-08T08:33:03.252Z,4.5
2019-01-08T08:34:02.542Z,4.5
2019-01-08T08:35:08.060Z,4.5
2019-01-08T08:36:02.935Z,4.43
2019-01-08T08:37:03.237Z,4.5
2019-01-08T08:38:02.524Z,4.5
2019-01-08T08:39:02.950Z,4.5
2019-01-08T08:40:03.297Z,4.5
2019-01-08T08:41:02.597Z,4.43
2019-01-08T08:42:02.929Z,4.5
2019-01-08T08:43:03.248Z,4.5
2019-01-08T08:44:02.628Z,4.5
2019-01-08T08:45:02.923Z,4.5
2019-01-08T08:46:03.249Z,4.5
2019-01-08T08:47:02.534Z,4.5
2019-01-08T08:48:02.845Z,4.5
2019-01-08T08:49:03.190Z,4.5
2019-01-08T08:50:03.347Z,4.43
2019-01-08T08:51:02.604Z,4.43
2019-01-08T08:52:02.928Z,4.5
2019-01-08T08:53:03.251Z,4.5
2019-01-08T08:54:02.547Z,4.43
2019-01-08T08:55:02.878Z,4.5
2019-01-08T08:56:04.102Z,4.5
2019-01-08T08:57:02.358Z,4.5
2019-01-08T08:58:02.689Z,4.5
2019-01-08T08:59:03.044Z,4.5
2019-01-08T09:00:02.415Z,4.5
2019-01-08T09:01:06.797Z,4.5
2019-01-08T09:02:02.366Z,4.5
2019-01-08T09:03:02.704Z,4.5
2019-01-08T09:04:03.081Z,4.5
2019-01-08T09:05:02.395Z,4.5
2019-01-08T09:06:02.710Z,4.5
2019-01-08T09:07:03.005Z,4.56
2019-01-08T09:08:02.294Z,4.56
2019-01-08T09:09:02.620Z,4.5
2019-01-08T09:10:02.929Z,4.56
2019-01-08T09:11:03.267Z,4.62
2019-01-08T09:12:02.576Z,4.62
2019-01-08T09:13:02.849Z,4.56
2019-01-08T09:14:03.180Z,4.56
2019-01-08T09:15:02.451Z,4.62
2019-01-08T09:16:02.793Z,4.62
2019-01-08T09:17:03.092Z,4.62
2019-01-08T09:18:02.461Z,4.62
2019-01-08T09:19:02.764Z,4.62
2019-01-08T09:20:03.097Z,4.62
2019-01-08T09:21:04.189Z,4.62
2019-01-08T09:22:02.456Z,4.68
2019-01-08T09:23:02.769Z,4.62
2019-01-08T09:24:03.094Z,4.62
2019-01-08T09:25:02.361Z,4.62
2019-01-08T09:26:02.683Z,4.62
2019-01-08T09:27:03.070Z,4.62
2019-01-08T09:28:02.383Z,4.62
2019-01-08T09:29:02.678Z,4.62
2019-01-08T09:30:02.998Z,4.62
2019-01-08T09:31:02.280Z,4.68
2019-01-08T09:32:02.629Z,4.68
2019-01-08T09:33:02.983Z,4.68
2019-01-08T09:34:02.294Z,4.68
2019-01-08T09:35:03.498Z,4.75
2019-01-08T09:36:02.765Z,4.75
2019-01-08T09:37:03.107Z,4.75
2019-01-08T09:38:02.364Z,4.75
2019-01-08T09:39:03.563Z,4.68
2019-01-08T09:40:02.855Z,4.75
2019-01-08T09:41:03.167Z,4.75
2019-01-08T09:42:02.466Z,4.81
2019-01-08T09:43:02.778Z,4.81
2019-01-08T09:44:03.102Z,4.81
2019-01-08T09:45:02.364Z,4.87
2019-01-08T09:46:02.691Z,4.81
2019-01-08T09:47:03.075Z,4.81
2019-01-08T09:48:02.375Z,4.75
2019-01-08T09:49:02.742Z,4.75
2019-01-08T09:50:03.013Z,4.75
2019-01-08T09:51:02.331Z,4.75
2019-01-08T09:52:02.665Z,4.75
2019-01-08T09:53:02.944Z,4.75
2019-01-08T09:54:03.238Z,4.68
2019-01-08T09:55:02.549Z,4.68
2019-01-08T09:56:02.843Z,4.68
2019-01-08T09:57:03.217Z,4.68
2019-01-08T09:58:02.547Z,4.68
2019-01-08T09:59:02.847Z,4.68
2019-01-08T10:00:03.162Z,4.68
2019-01-08T10:01:02.459Z,4.68
2019-01-08T10:02:02.811Z,4.68
2019-01-08T10:03:03.170Z,4.68
2019-01-08T10:04:02.500Z,4.75
2019-01-08T10:05:02.759Z,4.68
2019-01-08T10:06:03.090Z,4.75
2019-01-08T10:07:02.359Z,4.68
2019-01-08T10:08:02.704Z,4.68
2019-01-08T10:09:03.015Z,4.75
2019-01-08T10:10:02.337Z,4.75
2019-01-08T10:11:02.618Z,4.75
2019-01-08T10:12:02.948Z,4.75
2019-01-08T10:13:03.276Z,4.75
2019-01-08T10:14:02.614Z,4.75
2019-01-08T10:15:02.945Z,4.75
2019-01-08T10:16:03.245Z,4.75
2019-01-08T10:17:02.521Z,4.75
2019-01-08T10:18:02.907Z,4.75
2019-01-08T10:19:03.247Z,4.68
2019-01-08T10:20:02.533Z,4.75
2019-01-08T10:21:02.856Z,4.75
2019-01-08T10:22:03.182Z,4.75
2019-01-08T10:23:09.845Z,4.81
2019-01-08T10:24:02.301Z,4.81
2019-01-08T10:25:02.606Z,4.81
2019-01-08T10:26:02.927Z,4.75
2019-01-08T10:27:03.250Z,4.75
2019-01-08T10:28:02.631Z,4.75
2019-01-08T10:29:02.926Z,4.75
2019-01-08T10:30:03.249Z,4.75
2019-01-08T10:31:02.530Z,4.75
2019-01-08T10:32:02.857Z,4.75
2019-01-08T10:33:03.275Z,4.75
2019-01-08T10:34:02.615Z,4.75
2019-01-08T10:35:02.980Z,4.75
2019-01-08T10:36:02.290Z,4.75
2019-01-08T10:37:02.607Z,4.68
2019-01-08T10:38:02.985Z,4.75
2019-01-08T10:39:02.348Z,4.68
2019-01-08T10:40:02.610Z,4.75
2019-01-08T10:41:02.929Z,4.75
2019-01-08T10:42:03.265Z,4.75
2019-01-08T10:43:02.601Z,4.75
2019-01-08T10:44:02.981Z,4.75
2019-01-08T10:45:03.156Z,4.75
2019-01-08T10:46:02.446Z,4.75
2019-01-08T10:47:02.767Z,4.68
2019-01-08T10:48:03.087Z,4.75
2019-01-08T10:49:03.269Z,4.68
2019-01-08T10:50:02.562Z,4.68
2019-01-08T10:51:02.898Z,4.68
2019-01-08T10:52:03.251Z,4.68
2019-01-08T10:53:02.540Z,4.68
2019-01-08T10:54:02.924Z,4.68
2019-01-08T10:55:03.309Z,4.68
2019-01-08T10:56:02.617Z,4.68
2019-01-08T10:57:02.932Z,4.68
2019-01-08T10:58:04.119Z,4.68
2019-01-08T10:59:07.478Z,4.68
2019-01-08T11:00:03.025Z,4.68
2019-01-08T11:01:02.294Z,4.68
2019-01-08T11:02:02.605Z,4.68
2019-01-08T11:03:02.923Z,4.68
2019-01-08T11:04:03.240Z,4.68
2019-01-08T11:05:02.548Z,4.68
2019-01-08T11:06:02.944Z,4.68
2019-01-08T11:07:03.309Z,4.68
2019-01-08T11:08:02.613Z,4.68
2019-01-08T11:09:02.929Z,4.68
2019-01-08T11:10:03.335Z,4.68
2019-01-08T11:11:02.684Z,4.68
2019-01-08T11:12:03.003Z,4.68
2019-01-08T11:13:02.281Z,4.68
2019-01-08T11:14:03.487Z,4.68
2019-01-08T11:15:02.789Z,4.68
2019-01-08T11:16:03.086Z,4.68
2019-01-08T11:17:02.417Z,4.68
2019-01-08T11:18:02.703Z,4.68
2019-01-08T11:19:02.998Z,4.68
2019-01-08T11:20:02.307Z,4.68
2019-01-08T11:21:02.608Z,4.68
2019-01-08T11:22:03.010Z,4.68
2019-01-08T11:23:02.362Z,4.68
2019-01-08T11:24:02.696Z,4.68
2019-01-08T11:25:03.970Z,4.75
2019-01-08T11:26:02.315Z,4.75
2019-01-08T11:27:02.602Z,4.75
2019-01-08T11:28:02.933Z,4.68
2019-01-08T11:29:04.140Z,4.75
2019-01-08T11:30:02.450Z,4.75
2019-01-08T11:31:02.839Z,4.75
2019-01-08T11:32:03.161Z,4.75
2019-01-08T11:33:02.464Z,4.75
2019-01-08T11:34:02.766Z,4.75
2019-01-08T11:35:03.014Z,4.75
2019-01-08T11:36:04.954Z,4.81
2019-01-08T11:37:03.308Z,4.75
2019-01-08T11:38:04.370Z,4.81
2019-01-08T11:39:02.715Z,4.81
2019-01-08T11:40:03.002Z,4.81
2019-01-08T11:41:02.329Z,4.81
2019-01-08T11:42:02.598Z,4.81
2019-01-08T11:43:02.936Z,4.81
2019-01-08T11:44:03.264Z,4.87
2019-01-08T11:45:02.521Z,4.87
2019-01-08T11:46:02.904Z,4.87
2019-01-08T11:47:03.163Z,4.93
2019-01-08T11:48:04.010Z,4.93
2019-01-08T11:49:02.681Z,4.93
2019-01-08T11:50:03.010Z,5
2019-01-08T11:51:02.333Z,5
2019-01-08T11:52:02.676Z,5.06
2019-01-08T11:53:02.937Z,5.06
2019-01-08T11:54:03.257Z,5.06
2019-01-08T11:55:02.576Z,5.06
2019-01-08T11:56:02.850Z,5.06
2019-01-08T11:57:03.232Z,5.12
2019-01-08T11:58:02.550Z,5.12
2019-01-08T11:59:02.902Z,5.06
2019-01-08T12:00:03.218Z,5.06
2019-01-08T12:01:02.583Z,5.12
2019-01-08T12:02:02.959Z,5.06
2019-01-08T12:03:02.298Z,5.06
2019-01-08T12:04:02.614Z,5
2019-01-08T12:05:02.947Z,5
2019-01-08T12:06:03.287Z,5.06
2019-01-08T12:07:02.629Z,5
2019-01-08T12:08:02.920Z,5.06
2019-01-08T12:09:03.279Z,5.06
2019-01-08T12:10:02.637Z,5.12
2019-01-08T12:11:03.017Z,5.12
2019-01-08T12:12:02.351Z,5.06
2019-01-08T12:13:02.605Z,5.06
2019-01-08T12:14:02.931Z,5.06
2019-01-08T12:15:03.242Z,5.06
2019-01-08T12:16:02.585Z,5.06
2019-01-08T12:17:03.189Z,5.06
2019-01-08T12:18:02.524Z,5.12
2019-01-08T12:19:02.887Z,5.12
2019-01-08T12:20:03.166Z,5.12
2019-01-08T12:21:02.494Z,5.18
2019-01-08T12:22:02.892Z,5.18
2019-01-08T12:23:03.251Z,5.18
2019-01-08T12:24:02.540Z,5.18
2019-01-08T12:25:02.869Z,5.18
2019-01-08T12:26:03.311Z,5.18
2019-01-08T12:27:02.623Z,5.18
2019-01-08T12:28:02.969Z,5.12
2019-01-08T12:29:02.341Z,5.12
2019-01-08T12:30:02.605Z,5.12
2019-01-08T12:31:02.944Z,5.12
2019-01-08T12:32:06.096Z,5.12
2019-01-08T12:33:02.870Z,5.06
2019-01-08T12:34:03.180Z,5.06
2019-01-08T12:35:02.518Z,5.06
2019-01-08T12:36:02.854Z,5.06
2019-01-08T12:37:03.250Z,5.06
2019-01-08T12:38:02.538Z,5.06
2019-01-08T12:39:02.851Z,5
2019-01-08T12:40:03.177Z,5.06
2019-01-08T12:41:02.511Z,5.06
2019-01-08T12:42:02.898Z,5.06
2019-01-08T12:43:03.186Z,5.06
2019-01-08T12:44:02.480Z,5.12
2019-01-08T12:45:02.780Z,5.12
2019-01-08T12:46:03.097Z,5.18
2019-01-08T12:47:02.479Z,5.12
2019-01-08T12:48:02.873Z,5.18
2019-01-08T12:49:03.244Z,5.12
2019-01-08T12:50:02.555Z,5.12
2019-01-08T12:51:02.846Z,5.12
2019-01-08T12:52:03.284Z,5.12
2019-01-08T12:53:02.599Z,5.12
2019-01-08T12:54:02.843Z,5.12
2019-01-08T12:55:03.174Z,5.18
2019-01-08T12:56:03.322Z,5.25
2019-01-08T12:57:02.604Z,5.25
2019-01-08T12:58:02.945Z,5.18
2019-01-08T12:59:03.257Z,5.25
2019-01-08T13:00:02.553Z,5.25
2019-01-08T13:01:02.870Z,5.25
2019-01-08T13:02:03.212Z,5.25
2019-01-08T13:03:03.030Z,5.31
2019-01-08T13:04:02.438Z,5.31
2019-01-08T13:05:02.775Z,5.25
2019-01-08T13:06:03.111Z,5.25
2019-01-08T13:07:02.365Z,5.25
2019-01-08T13:08:02.760Z,5.31
2019-01-08T13:09:03.109Z,5.31
2019-01-08T13:10:02.444Z,5.37
2019-01-08T13:11:02.769Z,5.37
2019-01-08T13:12:03.082Z,5.37
2019-01-08T13:13:02.388Z,5.37
2019-01-08T13:14:02.687Z,5.37
2019-01-08T13:15:03.008Z,5.43
2019-01-08T13:16:02.303Z,5.43
2019-01-08T13:17:11.123Z,5.37
2019-01-08T13:18:02.719Z,5.37
2019-01-08T13:19:03.065Z,5.37
2019-01-08T13:20:02.366Z,5.37
2019-01-08T13:21:02.703Z,5.43
2019-01-08T13:22:02.998Z,5.37